Time;durP1;ratioP1;P1;durP2;ratioP2;P2;SDS_P1;SDS_P2;PMS_P1;PMS_P2;Temp;Humidity;BMP_temperature;BMP_pressure;BME280_temperature;BME280_humidity;BME280_pressure;Samples;Min_cycle;Max_cycle;Signal;HPM_P1;HPM_P2
2021/07/05 00:02:14;;;;;;;1.70;1.60;;;17.90;99.90;;;;;;4936878;29;21163;-79
2021/07/05 00:04:40;;;;;;;3.60;1.40;;;17.90;99.90;;;;;;4936512;29;21182;-79
2021/07/05 00:07:07;;;;;;;2.73;1.27;;;17.90;99.90;;;;;;4953286;29;20591;-79
2021/07/05 00:09:33;;;;;;;1.80;1.10;;;17.90;99.90;;;;;;4953738;28;20631;-79
2021/07/05 00:11:59;;;;;;;1.60;1.20;;;17.90;99.90;;;;;;4937429;29;21489;-80
2021/07/05 00:14:25;;;;;;;2.47;1.30;;;17.90;99.90;;;;;;4953422;29;20572;-79
2021/07/05 00:16:53;;;;;;;2.50;2.00;;;17.90;99.90;;;;;;4954520;29;20736;-80
2021/07/05 00:19:18;;;;;;;2.57;1.17;;;17.90;99.90;;;;;;4954113;28;20665;-79
2021/07/05 00:21:44;;;;;;;3.80;1.90;;;17.90;99.90;;;;;;4953326;29;21135;-79
2021/07/05 00:24:10;;;;;;;2.70;1.30;;;17.80;99.90;;;;;;4954048;29;20176;-79
2021/07/05 00:26:36;;;;;;;2.30;1.67;;;17.80;99.90;;;;;;4953317;29;20577;-79
2021/07/05 00:29:01;;;;;;;2.70;1.40;;;17.80;99.90;;;;;;4951985;28;20211;-79
2021/07/05 00:31:27;;;;;;;2.30;1.73;;;17.80;99.90;;;;;;4957517;29;20235;-79
2021/07/05 00:33:53;;;;;;;7.33;1.37;;;17.80;99.90;;;;;;4953511;29;20297;-79
2021/07/05 00:36:19;;;;;;;4.30;1.50;;;17.80;99.90;;;;;;4953974;29;20192;-79
2021/07/05 00:38:45;;;;;;;2.53;1.60;;;17.80;99.90;;;;;;4953891;29;20188;-79
2021/07/05 00:41:11;;;;;;;2.60;1.40;;;17.80;99.90;;;;;;4954585;28;21040;-80
2021/07/05 00:43:37;;;;;;;2.13;1.57;;;17.80;99.90;;;;;;4954328;29;20181;-79
2021/07/05 00:46:03;;;;;;;2.33;1.40;;;17.80;99.90;;;;;;4954158;29;20572;-79
2021/07/05 00:48:29;;;;;;;2.47;1.07;;;17.90;99.90;;;;;;4953856;29;20224;-79
2021/07/05 00:50:54;;;;;;;2.50;1.57;;;17.80;99.90;;;;;;4953038;29;21050;-80
2021/07/05 00:53:20;;;;;;;3.07;1.40;;;17.80;99.90;;;;;;4952883;29;20576;-80
2021/07/05 00:55:46;;;;;;;2.33;1.20;;;17.80;99.90;;;;;;4953902;29;20652;-79
2021/07/05 00:58:12;;;;;;;3.47;1.30;;;17.80;99.90;;;;;;4952975;29;20160;-79
2021/07/05 01:00:38;;;;;;;3.40;1.27;;;17.80;99.90;;;;;;4953772;28;20615;-80
2021/07/05 01:03:06;;;;;;;2.30;1.40;;;17.80;99.90;;;;;;4954028;29;20586;-80
2021/07/05 01:05:33;;;;;;;1.63;1.40;;;17.80;99.90;;;;;;4936455;29;20667;-80
2021/07/05 01:07:59;;;;;;;2.63;1.20;;;17.90;99.90;;;;;;4957971;28;20569;-79
2021/07/05 01:10:25;;;;;;;2.80;1.20;;;17.90;99.90;;;;;;4954060;28;20638;-80
2021/07/05 01:12:52;;;;;;;1.67;1.20;;;17.90;99.90;;;;;;4952903;28;20567;-80
2021/07/05 01:15:22;;;;;;;3.40;1.30;;;17.90;99.90;;;;;;4953783;29;20985;-80
2021/07/05 01:17:48;;;;;;;2.27;1.47;;;17.90;99.90;;;;;;4954016;29;20560;-80
2021/07/05 01:20:18;;;;;;;2.40;1.10;;;17.90;99.90;;;;;;4951794;29;20607;-80
2021/07/05 01:22:44;;;;;;;1.63;1.20;;;17.90;99.90;;;;;;4936751;29;21181;-79
2021/07/05 01:25:14;;;;;;;2.23;1.00;;;17.90;99.90;;;;;;4956243;29;20568;-79
2021/07/05 01:27:41;;;;;;;4.47;1.30;;;17.90;99.90;;;;;;4954254;29;20590;-79
2021/07/05 01:30:08;;;;;;;3.00;1.37;;;18.00;99.90;;;;;;4953710;28;20666;-79
2021/07/05 01:32:34;;;;;;;1.80;1.00;;;18.00;99.90;;;;;;4952778;29;20595;-79
2021/07/05 01:35:00;;;;;;;6.83;1.90;;;18.00;99.90;;;;;;4936525;29;20927;-79
2021/07/05 01:37:26;;;;;;;2.53;1.20;;;18.00;99.90;;;;;;4953437;29;20626;-79
2021/07/05 01:39:52;;;;;;;3.67;1.20;;;18.00;99.90;;;;;;4953168;28;20596;-79
2021/07/05 01:42:20;;;;;;;1.77;1.20;;;18.00;99.90;;;;;;4952246;29;20179;-79
2021/07/05 01:44:46;;;;;;;3.80;1.17;;;18.00;99.90;;;;;;4957704;29;20308;-78
2021/07/05 01:47:12;;;;;;;4.87;1.23;;;17.90;99.90;;;;;;4953463;29;20587;-78
2021/07/05 01:49:39;;;;;;;2.70;1.23;;;18.00;99.90;;;;;;4951717;29;20627;-79
2021/07/05 01:52:05;;;;;;;1.50;1.10;;;17.90;99.90;;;;;;4953486;29;20610;-79
2021/07/05 01:54:31;;;;;;;2.00;1.27;;;18.00;99.90;;;;;;4951997;28;20588;-79
2021/07/05 01:56:57;;;;;;;3.00;1.20;;;18.10;99.90;;;;;;4953202;29;20583;-78
2021/07/05 01:59:24;;;;;;;3.50;1.03;;;18.10;99.90;;;;;;4935094;29;20570;-78
2021/07/05 02:01:49;;;;;;;1.33;1.10;;;18.10;99.90;;;;;;4952994;28;20658;-79
2021/07/05 02:04:15;;;;;;;4.70;1.00;;;18.20;99.90;;;;;;4952504;29;20690;-79
2021/07/05 02:06:41;;;;;;;1.80;1.10;;;18.20;99.90;;;;;;4953043;28;20263;-79
2021/07/05 02:09:08;;;;;;;4.90;1.13;;;18.20;99.90;;;;;;4951844;28;20215;-79
2021/07/05 02:11:35;;;;;;;2.20;1.23;;;18.30;99.90;;;;;;4953517;29;20290;-79
2021/07/05 02:14:03;;;;;;;5.07;1.53;;;18.20;99.90;;;;;;4953031;28;20602;-79
2021/07/05 02:16:29;;;;;;;2.50;1.07;;;18.20;99.90;;;;;;4953697;28;20575;-79
2021/07/05 02:18:55;;;;;;;2.83;1.20;;;18.30;99.90;;;;;;4956132;28;21123;-78
2021/07/05 02:21:20;;;;;;;2.60;1.20;;;18.30;99.90;;;;;;4960855;28;20181;-79
2021/07/05 02:23:46;;;;;;;4.60;1.00;;;18.30;99.90;;;;;;4956721;29;20577;-79
2021/07/05 02:26:12;;;;;;;2.40;0.97;;;18.30;99.90;;;;;;4956601;29;20576;-79
2021/07/05 02:28:38;;;;;;;2.13;1.00;;;18.30;99.90;;;;;;4956772;29;20172;-79
2021/07/05 02:31:06;;;;;;;2.57;1.00;;;18.30;99.90;;;;;;4956626;28;20204;-78
2021/07/05 02:33:34;;;;;;;1.30;0.90;;;18.40;99.90;;;;;;4939137;29;20606;-78
2021/07/05 02:36:02;;;;;;;3.10;1.37;;;18.40;99.90;;;;;;4956069;29;20659;-78
2021/07/05 02:38:28;;;;;;;3.70;1.10;;;18.40;99.90;;;;;;4955688;29;20908;-78
2021/07/05 02:40:55;;;;;;;3.10;1.20;;;18.40;99.90;;;;;;4956368;28;20603;-79
2021/07/05 02:43:23;;;;;;;2.03;1.10;;;18.40;99.90;;;;;;4954975;29;20567;-79
2021/07/05 02:45:52;;;;;;;1.67;1.03;;;18.40;99.90;;;;;;4956288;29;20568;-79
2021/07/05 02:48:21;;;;;;;6.27;1.17;;;18.40;99.90;;;;;;4955774;29;20651;-78
2021/07/05 02:50:51;;;;;;;1.30;0.93;;;18.50;99.90;;;;;;4956195;28;21046;-79
2021/07/05 02:53:17;;;;;;;1.40;1.07;;;18.50;99.90;;;;;;4956200;29;20599;-78
2021/07/05 02:55:43;;;;;;;2.00;1.00;;;18.60;99.90;;;;;;4954819;29;20595;-78
2021/07/05 02:58:09;;;;;;;1.87;1.20;;;18.60;99.90;;;;;;4957735;28;20576;-78
2021/07/05 03:00:38;;;;;;;3.00;1.33;;;18.60;99.90;;;;;;4954422;29;20203;-78
2021/07/05 03:03:04;;;;;;;2.47;1.00;;;18.60;99.90;;;;;;4955078;29;20564;-78
2021/07/05 03:05:31;;;;;;;1.77;0.97;;;18.60;99.90;;;;;;4956105;29;20584;-78
2021/07/05 03:07:58;;;;;;;1.63;1.00;;;18.60;99.90;;;;;;4955653;29;20618;-79
2021/07/05 03:10:28;;;;;;;3.30;0.90;;;18.70;99.90;;;;;;4955973;28;20622;-78
2021/07/05 03:12:58;;;;;;;2.90;1.50;;;18.70;99.90;;;;;;4953375;29;20579;-79
2021/07/05 03:15:24;;;;;;;4.23;1.00;;;18.70;99.90;;;;;;4962949;28;20564;-78
2021/07/05 03:17:50;;;;;;;3.47;1.07;;;18.70;99.90;;;;;;4972350;28;20575;-79
2021/07/05 03:20:19;;;;;;;1.50;1.00;;;18.70;99.90;;;;;;4955586;28;20615;-75
2021/07/05 03:22:46;;;;;;;2.33;1.00;;;18.70;99.90;;;;;;4954944;29;20920;-75
2021/07/05 03:25:14;;;;;;;2.77;1.13;;;18.70;99.90;;;;;;4955665;29;20663;-75
2021/07/05 03:27:40;;;;;;;1.60;1.10;;;18.80;99.90;;;;;;4956832;28;20572;-75
2021/07/05 03:30:08;;;;;;;5.37;1.00;;;18.80;99.90;;;;;;4955077;28;20631;-74
2021/07/05 03:32:35;;;;;;;6.20;1.20;;;18.80;99.90;;;;;;4953286;29;20568;-75
2021/07/05 03:35:01;;;;;;;3.10;1.40;;;18.80;99.90;;;;;;4958973;29;20572;-75
2021/07/05 03:37:26;;;;;;;1.80;1.00;;;18.80;99.90;;;;;;4954509;29;20981;-76
2021/07/05 03:39:52;;;;;;;3.07;1.10;;;18.80;99.90;;;;;;4953943;29;20647;-76
2021/07/05 03:42:18;;;;;;;1.90;1.20;;;18.90;99.90;;;;;;4954055;29;20187;-76
2021/07/05 03:44:44;;;;;;;3.33;1.10;;;18.90;99.90;;;;;;4954694;29;20695;-76
2021/07/05 03:47:09;;;;;;;2.73;1.17;;;18.90;99.90;;;;;;4955070;28;20224;-77
2021/07/05 03:49:35;;;;;;;2.40;0.80;;;18.90;99.90;;;;;;4954948;28;20533;-75
2021/07/05 03:52:01;;;;;;;2.10;0.97;;;18.90;99.90;;;;;;4981699;23;20763;-82
2021/07/05 03:55:08;;;;;;;2.00;1.17;;;18.90;99.90;;;;;;5042622;28;20188;-80
2021/07/05 03:58:16;;;;;;;2.97;1.00;;;18.90;99.90;;;;;;5037018;28;20213;-80
2021/07/05 04:01:09;;;;;;;2.10;1.20;;;19.00;99.90;;;;;;5031703;28;20618;-80
2021/07/05 04:03:56;;;;;;;1.97;1.03;;;18.90;99.90;;;;;;5042134;28;20711;-80
2021/07/05 04:06:22;;;;;;;4.40;1.00;;;19.00;99.90;;;;;;5033311;28;21217;-80
2021/07/05 04:08:48;;;;;;;2.47;1.00;;;19.00;99.90;;;;;;4985812;28;21200;-81
2021/07/05 04:12:03;;;;;;;3.73;1.10;;;19.00;99.90;;;;;;5044433;28;20615;-80
2021/07/05 04:14:53;;;;;;;4.43;0.90;;;18.90;99.90;;;;;;5011648;28;20596;-80
2021/07/05 04:17:18;;;;;;;3.30;0.80;;;18.80;99.90;;;;;;5023665;28;20583;-79
2021/07/05 04:19:45;;;;;;;4.30;0.70;;;18.70;99.90;;;;;;5022175;28;20947;-80
2021/07/05 04:22:14;;;;;;;1.80;0.80;;;18.70;99.90;;;;;;5042680;28;20177;-80
2021/07/05 04:24:39;;;;;;;5.60;0.80;;;18.60;99.90;;;;;;5032348;28;20576;-80
2021/07/05 04:27:05;;;;;;;2.83;0.70;;;18.50;99.90;;;;;;5042841;28;20603;-80
2021/07/05 04:29:32;;;;;;;2.40;0.73;;;18.40;99.90;;;;;;5050215;28;20560;-80
2021/07/05 04:32:03;;;;;;;1.20;0.60;;;18.40;99.90;;;;;;5007881;28;20600;-80
2021/07/05 04:34:29;;;;;;;1.80;0.60;;;18.40;99.90;;;;;;4998124;28;20657;-80
2021/07/05 04:36:54;;;;;;;1.47;0.60;;;18.30;99.90;;;;;;5021148;28;20670;-80
2021/07/05 04:39:27;;;;;;;1.40;0.60;;;18.30;99.90;;;;;;5013922;28;20704;-80
2021/07/05 04:42:17;;;;;;;1.73;0.70;;;18.30;99.90;;;;;;5037075;28;20605;-78
2021/07/05 04:44:42;;;;;;;1.00;0.50;;;18.20;99.90;;;;;;5049338;28;20576;-76
2021/07/05 04:47:08;;;;;;;1.60;0.47;;;18.10;99.90;;;;;;5043995;28;20180;-78
2021/07/05 04:49:36;;;;;;;1.57;0.60;;;18.10;99.90;;;;;;5047494;28;20173;-77
2021/07/05 04:52:02;;;;;;;1.70;0.60;;;18.10;99.90;;;;;;5033427;28;20169;-77
2021/07/05 04:54:27;;;;;;;1.33;0.60;;;18.00;99.90;;;;;;5043929;28;20649;-77
2021/07/05 04:56:53;;;;;;;2.20;0.60;;;18.00;99.90;;;;;;5033466;28;20568;-77
2021/07/05 04:59:19;;;;;;;1.03;0.60;;;17.90;99.90;;;;;;5051703;28;20204;-78
2021/07/05 05:01:46;;;;;;;1.63;0.57;;;17.90;99.90;;;;;;5032577;28;20784;-78
2021/07/05 05:04:12;;;;;;;1.23;0.60;;;17.90;99.90;;;;;;5051826;28;20223;-78
2021/07/05 05:06:38;;;;;;;1.40;0.77;;;17.90;99.90;;;;;;5033948;28;21121;-78
2021/07/05 05:09:04;;;;;;;1.00;0.50;;;17.90;99.90;;;;;;5050698;28;20667;-78
2021/07/05 05:11:29;;;;;;;3.33;0.60;;;17.80;99.90;;;;;;5037663;28;20197;-78
2021/07/05 05:13:55;;;;;;;1.43;0.60;;;17.80;99.90;;;;;;5050462;28;20630;-76
2021/07/05 05:16:21;;;;;;;1.30;0.70;;;17.80;99.90;;;;;;5033482;28;20256;-79
2021/07/05 05:18:46;;;;;;;1.60;0.70;;;17.80;99.90;;;;;;5033791;28;20157;-79
2021/07/05 05:21:12;;;;;;;1.20;0.60;;;17.80;99.90;;;;;;5051521;28;20176;-77
2021/07/05 05:23:39;;;;;;;1.73;0.63;;;17.80;99.90;;;;;;5040335;28;20190;-77
2021/07/05 05:26:04;;;;;;;1.10;0.67;;;17.80;99.90;;;;;;5031433;28;21127;-77
2021/07/05 05:28:31;;;;;;;2.27;0.73;;;17.90;99.90;;;;;;5031426;28;20576;-77
2021/07/05 05:30:58;;;;;;;1.30;0.80;;;17.90;99.90;;;;;;5014029;28;20287;-77
2021/07/05 05:33:24;;;;;;;2.40;0.73;;;17.90;99.90;;;;;;5013720;28;20619;-77
2021/07/05 05:35:50;;;;;;;1.43;0.70;;;18.00;99.90;;;;;;5031352;28;20575;-77
2021/07/05 05:38:16;;;;;;;1.10;0.60;;;18.00;99.90;;;;;;5031237;28;20577;-77
2021/07/05 05:40:42;;;;;;;1.40;0.60;;;18.10;99.90;;;;;;5031613;28;21151;-77
2021/07/05 05:43:08;;;;;;;1.10;0.70;;;18.10;99.90;;;;;;5031448;28;20594;-76
2021/07/05 05:45:38;;;;;;;1.20;0.67;;;18.10;99.90;;;;;;5031444;28;20537;-77
2021/07/05 05:48:05;;;;;;;4.20;0.90;;;18.20;99.90;;;;;;5016741;28;20583;-81
2021/07/05 05:50:30;;;;;;;2.03;0.80;;;18.20;99.90;;;;;;5031379;28;20992;-80
2021/07/05 05:52:56;;;;;;;2.17;0.70;;;18.30;99.90;;;;;;5034612;28;20618;-81
2021/07/05 05:55:22;;;;;;;1.83;0.70;;;18.30;99.90;;;;;;5035618;28;20165;-82
2021/07/05 05:57:48;;;;;;;2.23;0.90;;;18.40;99.90;;;;;;5018030;28;20165;-81
2021/07/05 06:00:21;;;;;;;4.30;1.00;;;18.40;99.90;;;;;;5033935;28;20621;-81
2021/07/05 06:02:49;;;;;;;1.60;0.60;;;18.50;99.90;;;;;;5018952;28;20667;-81
2021/07/05 06:05:16;;;;;;;1.30;0.70;;;18.50;99.90;;;;;;5015622;28;21193;-81
2021/07/05 06:07:47;;;;;;;1.40;0.70;;;18.60;99.90;;;;;;5015360;28;20577;-81
2021/07/05 06:10:13;;;;;;;1.37;0.67;;;18.60;99.90;;;;;;5013914;28;20621;-81
2021/07/05 06:12:41;;;;;;;1.47;0.70;;;18.70;99.90;;;;;;5030734;28;20612;-81
2021/07/05 06:15:08;;;;;;;1.00;0.60;;;18.70;99.90;;;;;;5015401;28;20707;-81
2021/07/05 06:17:35;;;;;;;1.30;0.60;;;18.70;99.90;;;;;;5014055;28;20645;-82
2021/07/05 06:20:05;;;;;;;1.20;0.70;;;18.80;99.90;;;;;;5014433;28;20583;-80
2021/07/05 06:22:38;;;;;;;2.80;0.80;;;18.90;99.90;;;;;;5014620;28;20593;-78
2021/07/05 06:25:05;;;;;;;2.70;0.70;;;19.00;99.90;;;;;;5033043;28;20635;-78
2021/07/05 06:27:31;;;;;;;2.10;0.80;;;19.00;99.90;;;;;;5033247;28;20683;-78
2021/07/05 06:29:56;;;;;;;1.90;0.73;;;19.10;99.90;;;;;;5022405;28;21194;-78
2021/07/05 06:32:22;;;;;;;1.30;0.80;;;19.30;99.90;;;;;;5042894;28;20185;-79
2021/07/05 06:34:50;;;;;;;1.30;0.80;;;19.40;99.90;;;;;;5035531;28;20206;-79
2021/07/05 06:37:17;;;;;;;3.27;0.90;;;19.60;99.90;;;;;;5042843;28;20203;-79
2021/07/05 06:39:42;;;;;;;1.97;0.80;;;19.80;99.90;;;;;;5015384;28;21252;-78
2021/07/05 06:42:08;;;;;;;1.83;0.90;;;19.90;99.90;;;;;;5024802;28;20577;-79
2021/07/05 06:44:34;;;;;;;2.57;0.83;;;20.00;99.90;;;;;;5028225;28;20565;-78
2021/07/05 06:47:00;;;;;;;4.80;0.90;;;20.20;99.90;;;;;;5035963;28;20629;-78
2021/07/05 06:49:27;;;;;;;1.67;0.90;;;20.40;99.90;;;;;;5035701;28;20188;-78
2021/07/05 06:51:53;;;;;;;1.53;0.90;;;20.70;99.90;;;;;;5034124;28;21176;-78
2021/07/05 06:54:19;;;;;;;2.23;0.80;;;21.10;99.90;;;;;;5016537;28;20624;-78
2021/07/05 06:56:45;;;;;;;1.83;0.70;;;21.60;99.90;;;;;;5027096;28;20612;-78
2021/07/05 06:59:11;;;;;;;2.30;1.30;;;22.00;99.90;;;;;;4996278;28;20170;-78
2021/07/05 07:01:38;;;;;;;1.37;0.60;;;22.30;99.90;;;;;;5022501;28;20174;-80
2021/07/05 07:04:04;;;;;;;1.90;0.60;;;22.60;99.90;;;;;;5052770;28;20193;-80
2021/07/05 07:06:29;;;;;;;2.10;0.70;;;23.20;99.90;;;;;;5036247;28;20624;-80
2021/07/05 07:08:55;;;;;;;2.30;0.70;;;23.80;99.90;;;;;;5054698;28;20606;-80
2021/07/05 07:11:21;;;;;;;2.80;0.80;;;24.30;99.90;;;;;;5045699;28;20644;-82
2021/07/05 07:13:47;;;;;;;2.13;0.83;;;24.80;99.90;;;;;;5026152;28;20680;-75
2021/07/05 07:16:15;;;;;;;3.30;0.83;;;25.10;99.90;;;;;;5033573;28;20268;-75
2021/07/05 07:21:26;;;;;;;3.13;1.10;;;25.60;99.90;;;;;;5032758;28;20619;-75
2021/07/05 07:23:53;;;;;;;3.37;1.00;;;25.60;99.90;;;;;;5032090;28;20639;-75
2021/07/05 07:26:20;;;;;;;3.03;1.00;;;25.50;99.90;;;;;;5033373;28;20552;-76
2021/07/05 07:28:51;;;;;;;1.50;0.70;;;25.40;99.90;;;;;;5033900;28;20615;-76
2021/07/05 07:31:17;;;;;;;2.40;0.70;;;25.30;99.90;;;;;;5020760;28;20636;-76
2021/07/05 07:33:43;;;;;;;2.63;0.97;;;25.20;99.90;;;;;;5037230;28;20588;-81
2021/07/05 07:36:09;;;;;;;2.97;0.80;;;25.10;99.90;;;;;;5027005;28;20585;-76
2021/07/05 07:38:40;;;;;;;4.10;0.90;;;25.00;99.90;;;;;;4997349;28;20174;-76
2021/07/05 07:41:06;;;;;;;2.77;1.00;;;25.00;99.90;;;;;;5013478;28;20917;-76
2021/07/05 07:43:31;;;;;;;2.83;0.83;;;25.10;99.90;;;;;;4995723;28;20598;-76
2021/07/05 07:45:57;;;;;;;3.47;1.27;;;25.50;99.90;;;;;;5013238;28;20186;-76
2021/07/05 07:48:23;;;;;;;2.70;0.87;;;26.00;99.90;;;;;;5023074;28;20838;-76
2021/07/05 07:50:49;;;;;;;4.73;1.03;;;26.50;99.90;;;;;;5032913;28;20316;-76
2021/07/05 07:53:14;;;;;;;1.97;0.80;;;26.90;99.90;;;;;;5015142;28;20711;-77
2021/07/05 07:55:41;;;;;;;4.47;0.83;;;27.20;99.90;;;;;;5014729;28;20169;-77
2021/07/05 07:58:07;;;;;;;4.47;1.10;;;27.50;99.90;;;;;;5032808;28;20626;-76
2021/07/05 08:00:33;;;;;;;3.33;0.87;;;27.90;99.90;;;;;;5015265;28;20260;-76
2021/07/05 08:02:59;;;;;;;3.17;0.90;;;28.10;99.90;;;;;;5032866;28;20272;-76
2021/07/05 08:05:28;;;;;;;2.27;0.93;;;28.20;99.90;;;;;;5015250;28;20584;-76
2021/07/05 08:07:54;;;;;;;3.30;0.90;;;28.30;99.90;;;;;;5032574;28;20604;-76
2021/07/05 08:10:19;;;;;;;4.23;1.00;;;28.20;99.90;;;;;;5032610;28;20663;-77
2021/07/05 08:12:46;;;;;;;1.50;0.73;;;28.10;99.90;;;;;;5032607;28;20653;-76
2021/07/05 08:15:13;;;;;;;2.07;0.80;;;27.90;99.90;;;;;;5024843;28;20269;-76
2021/07/05 08:17:42;;;;;;;1.40;0.67;;;27.70;99.90;;;;;;5032408;28;20568;-76
2021/07/05 08:20:09;;;;;;;2.63;1.07;;;27.60;99.90;;;;;;5032079;28;20568;-76
2021/07/05 08:22:35;;;;;;;1.60;0.70;;;27.40;99.90;;;;;;5032404;28;21218;-75
2021/07/05 08:25:05;;;;;;;1.40;0.70;;;27.10;99.90;;;;;;5032527;28;20671;-76
2021/07/05 08:27:33;;;;;;;2.90;1.23;;;26.90;99.90;;;;;;5032685;28;20564;-77
2021/07/05 08:29:59;;;;;;;2.63;0.70;;;26.70;99.90;;;;;;5032076;28;20624;-77
2021/07/05 08:32:25;;;;;;;3.67;1.20;;;26.50;99.90;;;;;;5039698;28;20608;-76
2021/07/05 08:34:51;;;;;;;2.50;0.83;;;26.30;99.90;;;;;;5032352;28;20675;-77
2021/07/05 08:37:17;;;;;;;2.90;0.90;;;26.10;99.90;;;;;;5032182;28;20584;-77
2021/07/05 08:39:43;;;;;;;4.13;1.80;;;26.00;99.90;;;;;;5031993;28;20165;-77
2021/07/05 08:42:09;;;;;;;1.77;0.90;;;25.80;99.90;;;;;;5031032;28;20680;-76
2021/07/05 08:44:40;;;;;;;1.90;0.97;;;25.60;99.90;;;;;;5014528;28;20651;-77
2021/07/05 08:47:07;;;;;;;1.70;0.80;;;25.40;99.90;;;;;;5030875;28;20642;-77
2021/07/05 08:49:32;;;;;;;3.90;0.90;;;25.00;99.90;;;;;;5031239;28;20600;-76
2021/07/05 08:51:58;;;;;;;2.40;0.80;;;24.60;99.90;;;;;;5032091;28;20706;-77
2021/07/05 08:54:24;;;;;;;1.90;1.00;;;24.30;99.90;;;;;;5031784;28;20541;-76
2021/07/05 08:56:50;;;;;;;2.70;0.83;;;24.00;99.90;;;;;;5031938;28;20170;-79
2021/07/05 08:59:16;;;;;;;2.23;0.90;;;23.80;99.90;;;;;;5014166;28;20563;-76
2021/07/05 09:01:42;;;;;;;4.63;1.10;;;23.70;99.90;;;;;;5038616;28;20193;-76
2021/07/05 09:04:13;;;;;;;2.30;0.90;;;23.60;99.90;;;;;;5031952;28;20616;-77
2021/07/05 09:07:05;;;;;;;1.67;0.90;;;23.70;99.90;;;;;;5047210;28;20658;-76
2021/07/05 09:09:32;;;;;;;5.83;1.33;;;23.70;99.90;;;;;;5031195;28;20675;-77
2021/07/05 09:12:04;;;;;;;3.20;0.90;;;23.70;99.90;;;;;;5031579;28;20727;-77
2021/07/05 09:14:30;;;;;;;1.33;0.70;;;23.70;99.90;;;;;;5031443;28;20650;-77
2021/07/05 09:16:56;;;;;;;1.80;0.70;;;23.70;99.90;;;;;;5030665;28;20576;-77
2021/07/05 09:19:24;;;;;;;2.10;0.63;;;23.60;99.90;;;;;;5030292;28;20158;-76
2021/07/05 09:21:59;;;;;;;2.03;0.60;;;23.50;99.90;;;;;;5031601;28;20679;-77
2021/07/05 09:24:37;;;;;;;1.83;0.70;;;23.20;99.90;;;;;;5032542;28;20564;-77
2021/07/05 09:27:06;;;;;;;3.30;0.83;;;23.10;99.90;;;;;;5033356;28;20568;-77
2021/07/05 09:29:32;;;;;;;1.17;0.60;;;23.00;99.90;;;;;;5034974;28;20595;-78
2021/07/05 09:32:02;;;;;;;1.93;0.77;;;23.30;99.90;;;;;;4997846;28;20696;-78
2021/07/05 09:34:32;;;;;;;1.40;0.80;;;23.70;99.90;;;;;;5033022;28;20557;-78
2021/07/05 09:37:21;;;;;;;1.50;0.70;;;24.20;99.90;;;;;;5044549;28;20571;-78
2021/07/05 09:40:02;;;;;;;2.70;0.67;;;24.50;99.90;;;;;;5050974;28;20912;-77
2021/07/05 09:42:30;;;;;;;1.63;0.67;;;24.80;99.90;;;;;;5034612;28;20629;-78
2021/07/05 09:44:56;;;;;;;3.27;0.70;;;25.00;99.90;;;;;;5035382;28;20555;-78
2021/07/05 09:47:26;;;;;;;1.37;0.70;;;25.20;99.90;;;;;;5033158;28;21159;-78
2021/07/05 09:49:54;;;;;;;2.13;0.87;;;25.20;99.90;;;;;;5014725;28;20552;-78
2021/07/05 09:52:25;;;;;;;1.50;0.53;;;25.20;99.90;;;;;;5015865;28;20639;-79
2021/07/05 09:54:57;;;;;;;2.10;1.00;;;25.30;99.90;;;;;;5033599;28;20577;-79
2021/07/05 09:57:45;;;;;;;1.83;0.60;;;25.50;99.90;;;;;;5034257;28;20703;-79
2021/07/05 10:04:26;;;;;;;1.13;0.70;;;25.40;99.90;;;;;;4950145;29;20632;-79
2021/07/05 10:06:52;;;;;;;1.13;0.77;;;25.40;99.90;;;;;;4955307;29;20594;-78
2021/07/05 10:09:37;;;;;;;1.57;0.80;;;25.40;99.90;;;;;;4991716;28;20692;-78
2021/07/05 10:12:29;;;;;;;1.60;0.60;;;25.50;99.90;;;;;;4995200;28;20573;-78
2021/07/05 10:14:58;;;;;;;3.33;0.93;;;25.60;99.90;;;;;;5012850;28;20651;-78
2021/07/05 10:17:25;;;;;;;1.30;0.70;;;25.70;99.90;;;;;;5012169;28;20601;-78
2021/07/05 10:19:51;;;;;;;2.03;0.83;;;25.70;99.90;;;;;;5015692;28;20564;-78
2021/07/05 10:22:17;;;;;;;1.80;0.97;;;25.70;99.90;;;;;;4997789;28;20580;-78
2021/07/05 10:24:44;;;;;;;1.27;0.80;;;25.70;99.90;;;;;;5037578;28;20169;-78
2021/07/05 10:27:11;;;;;;;2.33;1.00;;;25.70;99.90;;;;;;5014713;28;20173;-77
2021/07/05 10:29:38;;;;;;;2.30;0.90;;;25.60;99.90;;;;;;5033594;28;20887;-78
2021/07/05 10:32:05;;;;;;;5.67;0.60;;;25.60;99.90;;;;;;5015380;28;20603;-77
2021/07/05 10:34:31;;;;;;;1.30;0.70;;;25.70;99.90;;;;;;5031530;28;20615;-78
2021/07/05 10:36:58;;;;;;;1.50;0.83;;;25.80;99.90;;;;;;5025461;28;20576;-78
2021/07/05 10:39:26;;;;;;;2.83;0.80;;;26.00;99.90;;;;;;5054884;28;20564;-77
2021/07/05 10:41:51;;;;;;;3.00;0.70;;;26.30;99.90;;;;;;5056777;28;20562;-77
2021/07/05 10:44:20;;;;;;;2.70;0.70;;;26.40;99.90;;;;;;5055140;28;20595;-78
2021/07/05 10:46:52;;;;;;;1.83;0.67;;;26.60;99.90;;;;;;5053117;28;20575;-78
2021/07/05 10:49:30;;;;;;;1.90;0.80;;;26.80;99.90;;;;;;5019356;28;20679;-78
2021/07/05 10:51:57;;;;;;;1.90;0.70;;;27.00;99.90;;;;;;5043851;28;20969;-78
2021/07/05 10:54:42;;;;;;;2.30;1.43;;;27.40;99.90;;;;;;5051108;28;20590;-78
2021/07/05 10:57:08;;;;;;;1.60;0.80;;;27.70;99.90;;;;;;5048996;28;20588;-79
2021/07/05 10:59:36;;;;;;;2.00;0.53;;;27.90;99.90;;;;;;5038187;28;20647;-78
2021/07/05 11:02:36;;;;;;;4.17;0.70;;;28.10;99.90;;;;;;5046585;28;20568;-78
2021/07/05 11:05:05;;;;;;;2.43;0.80;;;28.10;99.90;;;;;;5055326;28;20603;-77
2021/07/05 11:07:44;;;;;;;2.80;0.70;;;28.50;99.90;;;;;;5055990;28;20595;-78
2021/07/05 11:10:24;;;;;;;1.40;0.60;;;28.90;99.90;;;;;;5038429;28;20826;-77
2021/07/05 11:13:29;;;;;;;2.07;0.60;;;29.30;99.90;;;;;;5055389;28;20608;-77
2021/07/05 11:15:57;;;;;;;2.70;0.70;;;29.50;93.90;;;;;;4985053;28;20679;-78
2021/07/05 11:18:52;;;;;;;1.40;0.67;;;29.70;98.10;;;;;;5037523;28;20566;-77
2021/07/05 11:21:24;;;;;;;1.33;0.60;;;29.70;97.10;;;;;;5030191;28;20937;-78
2021/07/05 11:23:54;;;;;;;2.47;0.93;;;29.70;95.10;;;;;;5033770;28;20636;-77
2021/07/05 11:26:22;;;;;;;1.87;0.70;;;29.50;95.00;;;;;;5034838;28;20611;-77
2021/07/05 11:29:08;;;;;;;2.40;0.53;;;29.60;95.40;;;;;;5032211;28;20600;-77
2021/07/05 11:31:52;;;;;;;1.30;0.50;;;29.60;95.00;;;;;;5031436;28;20628;-77
2021/07/05 11:34:47;;;;;;;2.77;0.60;;;29.30;90.60;;;;;;5049470;28;21162;-77
2021/07/05 11:37:13;;;;;;;1.93;0.60;;;28.90;92.80;;;;;;5043306;28;20982;-78
2021/07/05 11:39:44;;;;;;;2.20;0.70;;;28.50;92.20;;;;;;5034304;28;20609;-77
2021/07/05 11:42:12;;;;;;;1.30;0.60;;;28.30;92.50;;;;;;5019431;28;20243;-78
2021/07/05 11:44:50;;;;;;;2.80;0.60;;;28.20;92.90;;;;;;5035314;28;20931;-78
2021/07/05 11:47:47;;;;;;;2.57;0.73;;;28.10;92.40;;;;;;5034287;28;20585;-78
2021/07/05 11:50:21;;;;;;;3.13;0.80;;;28.00;91.30;;;;;;5005718;28;21082;-78
2021/07/05 11:52:56;;;;;;;1.77;0.60;;;27.80;92.60;;;;;;5039807;28;20663;-77
2021/07/05 11:55:25;;;;;;;2.43;0.70;;;27.70;92.50;;;;;;5032794;28;20951;-77
2021/07/05 11:58:08;;;;;;;;;;;;;;;;;;;;;
2021/07/05 12:00:40;;;;;;;1.17;0.60;;;26.80;91.90;;;;;;5047459;28;20579;-78
2021/07/05 12:03:11;;;;;;;1.60;0.50;;;26.40;92.50;;;;;;5024363;28;20696;-77
2021/07/05 12:05:45;;;;;;;4.10;0.70;;;26.20;93.10;;;;;;5013408;28;20627;-77
2021/07/05 12:08:12;;;;;;;1.40;0.60;;;26.00;92.90;;;;;;4999258;28;20969;-77
2021/07/05 12:10:40;;;;;;;1.93;0.60;;;25.80;94.20;;;;;;5031463;28;20620;-77
2021/07/05 12:13:17;;;;;;;1.93;0.50;;;25.80;94.40;;;;;;5032726;28;20746;-77
2021/07/05 12:15:52;;;;;;;1.10;0.60;;;25.70;94.10;;;;;;5032923;28;20659;-77
2021/07/05 12:18:17;;;;;;;1.30;0.70;;;25.50;94.50;;;;;;5032558;28;20583;-77
2021/07/05 12:20:44;;;;;;;2.97;0.67;;;25.40;94.60;;;;;;5014633;28;20572;-77
2021/07/05 12:23:12;;;;;;;1.97;0.60;;;25.30;94.90;;;;;;5015015;28;20197;-77
2021/07/05 12:25:38;;;;;;;2.43;0.50;;;25.30;95.40;;;;;;5039509;28;20628;-77
2021/07/05 12:28:12;;;;;;;1.70;0.60;;;25.30;95.60;;;;;;5048548;28;20705;-77
2021/07/05 12:30:44;;;;;;;1.57;0.50;;;25.20;95.50;;;;;;5001641;28;20686;-77
2021/07/05 12:33:09;;;;;;;1.13;0.50;;;25.10;95.70;;;;;;5035672;28;21000;-77
2021/07/05 12:35:36;;;;;;;1.30;0.60;;;25.10;95.40;;;;;;5031507;28;20572;-76
2021/07/05 12:38:03;;;;;;;1.20;0.40;;;24.90;95.60;;;;;;5037827;28;20248;-76
2021/07/05 12:40:32;;;;;;;2.47;0.70;;;24.80;95.70;;;;;;5015361;28;20599;-76
2021/07/05 12:43:12;;;;;;;1.47;0.57;;;24.70;96.10;;;;;;5031848;28;20969;-77
2021/07/05 12:45:52;;;;;;;1.33;0.50;;;24.70;96.40;;;;;;5024546;28;20936;-77
2021/07/05 12:48:20;;;;;;;1.93;0.60;;;24.70;96.50;;;;;;5022057;28;20577;-76
2021/07/05 12:50:47;;;;;;;2.97;0.60;;;24.80;96.90;;;;;;5010621;28;21012;-77
2021/07/05 12:53:28;;;;;;;1.93;0.80;;;24.90;97.10;;;;;;5027331;28;20621;-77
2021/07/05 12:56:21;;;;;;;2.63;0.50;;;24.90;97.00;;;;;;4994216;28;20573;-76
2021/07/05 12:58:50;;;;;;;1.10;0.53;;;25.00;97.10;;;;;;5011939;28;20570;-76
2021/07/05 13:01:31;;;;;;;1.13;0.60;;;25.00;97.20;;;;;;5011478;28;20931;-76
2021/07/05 13:04:01;;;;;;;2.60;0.80;;;25.10;97.20;;;;;;5011729;28;20597;-76
2021/07/05 13:06:39;;;;;;;1.40;0.53;;;25.10;96.90;;;;;;5026772;28;20577;-76